createdAt,value
2018-08-23T00:00:08.350Z,97249.31
2018-08-23T00:02:35.807Z,97249.81
2018-08-23T00:05:03.205Z,97247.15
2018-08-23T00:07:30.701Z,97248.70
2018-08-23T00:09:58.124Z,97242.25
2018-08-23T00:12:25.537Z,97244.27
2018-08-23T00:14:53.018Z,97236.84
2018-08-23T00:17:20.455Z,97236.27
2018-08-23T00:19:47.988Z,97228.78
2018-08-23T00:22:15.512Z,97232.38
2018-08-23T00:24:43.556Z,97226.45
2018-08-23T00:27:11.100Z,97233.70
2018-08-23T00:29:38.523Z,97229.44
2018-08-23T00:32:06.048Z,97224.59
2018-08-23T00:34:33.493Z,97233.04
2018-08-23T00:37:00.893Z,97227.61
2018-08-23T00:39:28.299Z,97231.35
2018-08-23T00:41:55.722Z,97226.67
2018-08-23T00:44:23.208Z,97219.30
2018-08-23T00:46:50.812Z,97216.25
2018-08-23T00:49:18.218Z,97213.53
2018-08-23T00:51:46.096Z,97209.91
2018-08-23T00:54:13.651Z,97206.79
2018-08-23T00:56:41.839Z,97197.19
2018-08-23T00:59:09.303Z,97199.02
2018-08-23T01:01:36.772Z,97195.50
2018-08-23T01:04:04.392Z,97200.26
2018-08-23T01:06:31.811Z,97192.27
2018-08-23T01:08:59.228Z,97194.84
2018-08-23T01:11:26.678Z,97194.86
2018-08-23T01:13:54.150Z,97183.66
2018-08-23T01:16:21.641Z,97190.16
2018-08-23T01:18:49.107Z,97196.41
2018-08-23T01:21:16.537Z,97193.78
2018-08-23T01:23:44.001Z,97188.81
2018-08-23T01:26:11.680Z,97192.39
2018-08-23T01:28:39.141Z,97196.37
2018-08-23T01:31:07.382Z,97198.75
2018-08-23T01:33:34.838Z,97201.10
2018-08-23T01:36:02.300Z,97200.55
2018-08-23T01:38:29.834Z,97196.07
2018-08-23T01:40:57.270Z,97195.44
2018-08-23T01:43:24.716Z,97196.16
2018-08-23T01:45:52.150Z,97191.41
2018-08-23T01:48:19.544Z,97193.17
2018-08-23T01:50:47.025Z,97190.89
2018-08-23T01:53:15.723Z,97185.41
2018-08-23T01:55:43.168Z,97186.98
2018-08-23T01:58:10.588Z,97185.15
2018-08-23T02:00:38.047Z,97179.08
2018-08-23T02:03:05.592Z,97180.86
2018-08-23T02:05:33.102Z,97186.52
2018-08-23T02:08:00.881Z,97186.70
2018-08-23T02:10:28.320Z,97189.73
2018-08-23T02:12:55.734Z,97186.84
2018-08-23T02:15:23.190Z,97183.79
2018-08-23T02:17:50.616Z,97182.75
2018-08-23T02:20:18.026Z,97179.29
2018-08-23T02:22:45.441Z,97176.73
2018-08-23T02:25:12.877Z,97177.78
2018-08-23T02:27:40.358Z,97177.39
2018-08-23T02:30:07.997Z,97175.91
2018-08-23T02:32:35.433Z,97181.98
2018-08-23T02:35:02.856Z,97180.23
2018-08-23T02:37:30.344Z,97168.77
2018-08-23T02:39:57.793Z,97170.45
2018-08-23T02:42:25.198Z,97167.13
2018-08-23T02:44:52.648Z,97166.41
2018-08-23T02:47:20.093Z,97161.21
2018-08-23T02:49:47.537Z,97162.64
2018-08-23T02:52:14.942Z,97156.83
2018-08-23T02:54:42.391Z,97163.19
2018-08-23T02:57:09.784Z,97165.69
2018-08-23T02:59:37.245Z,97164.03
2018-08-23T03:02:04.823Z,97158.41
2018-08-23T03:04:32.260Z,97160.34
2018-08-23T03:06:59.712Z,97159.41
2018-08-23T03:09:27.166Z,97154.65
2018-08-23T03:11:54.687Z,97155.11
2018-08-23T03:14:22.168Z,97152.92
2018-08-23T03:16:49.590Z,97156.66
2018-08-23T03:19:17.025Z,97154.63
2018-08-23T03:21:44.455Z,97158.66
2018-08-23T03:24:11.902Z,97160.04
2018-08-23T03:26:39.567Z,97159.39
2018-08-23T03:29:06.981Z,97158.56
2018-08-23T03:31:34.372Z,97151.74
2018-08-23T03:34:01.778Z,97161.84
2018-08-23T03:36:29.249Z,97158.73
2018-08-23T03:38:56.776Z,97160.66
2018-08-23T03:41:24.241Z,97151.33
2018-08-23T03:43:51.637Z,97152.09
2018-08-23T03:46:19.026Z,97158.94
2018-08-23T03:48:46.463Z,97156.42
2018-08-23T03:51:13.882Z,97152.81
2018-08-23T03:53:41.398Z,97161.58
2018-08-23T03:56:09.113Z,97169.38
2018-08-23T03:58:36.578Z,97168.78
2018-08-23T04:01:04.189Z,97167.06
2018-08-23T04:03:31.617Z,97164.02
2018-08-23T04:05:59.074Z,97166.44
2018-08-23T04:08:26.512Z,97168.06
2018-08-23T04:10:54.060Z,97174.48
2018-08-23T04:13:21.456Z,97169.97
2018-08-23T04:15:48.931Z,97168.05
2018-08-23T04:18:16.334Z,97171.30
2018-08-23T04:20:43.773Z,97174.94
2018-08-23T04:23:11.262Z,97179.17
2018-08-23T04:25:38.810Z,97184.64
2018-08-23T04:28:06.264Z,97181.30
2018-08-23T04:30:33.679Z,97183.17
2018-08-23T04:33:01.255Z,97183.36
2018-08-23T04:35:28.695Z,97191.98
2018-08-23T04:37:56.232Z,97190.55
2018-08-23T04:40:23.675Z,97187.29
2018-08-23T04:42:51.122Z,97197.83
2018-08-23T04:45:18.593Z,97194.79
2018-08-23T04:47:46.212Z,97190.33
2018-08-23T04:50:13.635Z,97185.77
2018-08-23T04:52:41.073Z,97190.00
2018-08-23T04:55:08.490Z,97192.25
2018-08-23T04:57:35.932Z,97201.05
2018-08-23T05:00:03.389Z,97201.05
2018-08-23T05:02:30.919Z,97200.48
2018-08-23T05:04:58.375Z,97201.34
2018-08-23T05:07:25.765Z,97210.64
2018-08-23T05:09:53.200Z,97207.56
2018-08-23T05:12:20.798Z,97206.46
2018-08-23T05:14:48.271Z,97205.61
2018-08-23T05:17:15.722Z,97202.14
2018-08-23T05:19:43.170Z,97208.80
2018-08-23T05:22:10.672Z,97214.04
2018-08-23T05:24:38.090Z,97210.84
2018-08-23T05:27:05.651Z,97215.70
2018-08-23T05:29:33.212Z,97216.12
2018-08-23T05:32:01.087Z,97207.11
2018-08-23T05:34:28.484Z,97204.75
2018-08-23T05:36:55.892Z,97206.27
2018-08-23T05:39:23.391Z,97210.79
2018-08-23T05:41:50.937Z,97208.88
2018-08-23T05:44:18.429Z,97212.70
2018-08-23T05:46:45.947Z,97210.75
2018-08-23T05:49:13.482Z,97213.18
2018-08-23T05:51:40.955Z,97212.02
2018-08-23T05:54:08.996Z,97209.66
2018-08-23T05:56:36.438Z,97215.23
2018-08-23T05:59:03.824Z,97210.52
2018-08-23T06:01:32.260Z,97209.83
2018-08-23T06:03:59.706Z,97208.22
2018-08-23T06:06:27.160Z,97205.34
2018-08-23T06:08:54.656Z,97210.08
2018-08-23T06:11:22.136Z,97205.38
2018-08-23T06:13:49.537Z,97207.92
2018-08-23T06:16:17.783Z,97205.96
2018-08-23T06:18:45.336Z,97203.42
2018-08-23T06:21:12.754Z,97204.67
2018-08-23T06:23:40.250Z,97209.03
2018-08-23T06:26:07.729Z,97208.43
2018-08-23T06:28:36.099Z,97205.94
2018-08-23T06:31:03.531Z,97206.44
2018-08-23T06:33:31.102Z,97204.70
2018-08-23T06:35:58.447Z,97199.18
2018-08-23T06:38:25.927Z,97192.98
2018-08-23T06:40:53.384Z,97195.20
2018-08-23T06:43:20.790Z,97189.45
2018-08-23T06:45:49.202Z,97194.45
2018-08-23T06:48:16.703Z,97195.64
2018-08-23T06:50:44.129Z,97198.08
2018-08-23T06:53:11.583Z,97186.56
2018-08-23T06:55:39.015Z,97192.02
2018-08-23T06:58:06.529Z,97181.53
2018-08-23T07:00:34.719Z,97185.12
2018-08-23T07:03:02.367Z,97189.64
2018-08-23T07:05:29.790Z,97186.25
2018-08-23T07:07:57.252Z,97186.83
2018-08-23T07:10:24.695Z,97186.12
2018-08-23T07:12:52.154Z,97181.48
2018-08-23T07:15:19.560Z,97182.67
2018-08-23T07:17:47.154Z,97180.84
2018-08-23T07:20:14.486Z,97188.00
2018-08-23T07:22:41.912Z,97182.86
2018-08-23T07:25:09.371Z,97181.44
2018-08-23T07:27:36.779Z,97189.36
2018-08-23T07:30:04.593Z,97187.61
2018-08-23T07:32:32.097Z,97180.93
2018-08-23T07:34:59.658Z,97187.16
2018-08-23T07:37:27.061Z,97182.83
2018-08-23T07:39:54.634Z,97179.44
2018-08-23T07:42:22.904Z,97182.35
2018-08-23T07:44:50.331Z,97179.95
2018-08-23T07:47:17.798Z,97172.38
2018-08-23T07:49:45.810Z,97176.95
2018-08-23T07:52:13.239Z,97177.84
2018-08-23T07:54:40.753Z,97175.93
2018-08-23T07:57:08.196Z,97170.72
2018-08-23T07:59:35.620Z,97167.78
2018-08-23T08:02:03.058Z,97162.99
2018-08-23T08:04:30.042Z,97175.30
2018-08-23T08:06:57.074Z,97163.34
2018-08-23T08:09:24.162Z,97162.95
2018-08-23T08:11:51.162Z,97172.63
2018-08-23T08:14:18.112Z,97167.89
2018-08-23T08:16:45.108Z,97165.47
2018-08-23T08:19:12.571Z,97173.17
2018-08-23T08:21:39.586Z,97164.74
2018-08-23T08:24:06.510Z,97172.34
2018-08-23T08:26:33.503Z,97172.66
2018-08-23T08:29:01.103Z,97167.75
2018-08-23T08:31:28.583Z,97168.11
2018-08-23T08:33:56.189Z,97167.08
2018-08-23T08:36:23.691Z,97164.61
2018-08-23T08:38:51.163Z,97168.11
2018-08-23T08:41:19.447Z,97158.34
2018-08-23T08:43:46.969Z,97166.25
2018-08-23T08:46:14.526Z,97171.80
2018-08-23T08:48:41.505Z,97165.94
2018-08-23T08:51:10.489Z,97159.50
2018-08-23T08:53:37.918Z,97165.84
2018-08-23T08:56:05.062Z,97158.81
2018-08-23T08:58:32.108Z,97157.94
2018-08-23T09:00:59.528Z,97154.40
2018-08-23T09:03:27.761Z,97153.54
2018-08-23T09:05:54.724Z,97150.37
2018-08-23T09:08:21.657Z,97152.12
2018-08-23T09:10:49.221Z,97151.37
2018-08-23T09:13:16.666Z,97148.95
2018-08-23T09:15:44.137Z,97151.91
2018-08-23T09:18:11.653Z,97150.16
2018-08-23T09:20:39.195Z,97147.04
2018-08-23T09:23:06.158Z,97146.47
2018-08-23T09:25:33.416Z,97146.53
2018-08-23T09:28:00.815Z,97147.71
2018-08-23T09:30:28.426Z,97146.42
2018-08-23T09:32:55.862Z,97140.78
2018-08-23T09:35:23.319Z,97137.65
2018-08-23T09:37:50.745Z,97136.47
2018-08-23T09:40:18.175Z,97127.75
2018-08-23T09:42:45.733Z,97129.63
2018-08-23T09:45:13.366Z,97128.53
2018-08-23T09:47:40.848Z,97127.25
2018-08-23T09:50:07.913Z,97121.08
2018-08-23T09:52:35.644Z,97118.09
2018-08-23T09:55:03.604Z,97115.59
2018-08-23T09:57:31.463Z,97111.02
2018-08-23T09:59:58.908Z,97106.74
2018-08-23T10:02:32.234Z,97100.26
2018-08-23T10:04:59.683Z,97101.79
2018-08-23T10:07:27.213Z,97095.38
2018-08-23T10:09:54.677Z,97092.10
2018-08-23T10:15:20.595Z,97089.61
2018-08-23T10:20:58.604Z,97083.06
2018-08-23T10:23:26.089Z,97078.64
2018-08-23T10:25:53.494Z,97077.55
2018-08-23T10:28:20.952Z,97080.00
2018-08-23T10:30:48.375Z,97074.73
2018-08-23T10:33:17.210Z,97074.07
2018-08-23T10:35:44.201Z,97074.30
2018-08-23T10:38:11.705Z,97065.42
2018-08-23T10:40:39.207Z,97065.16
2018-08-23T10:43:06.674Z,97062.76
2018-08-23T10:45:34.112Z,97063.20
2018-08-23T10:48:01.066Z,97057.23
2018-08-23T10:50:28.045Z,97057.27
2018-08-23T10:52:55.498Z,97054.54
2018-08-23T10:55:22.969Z,97050.80
2018-08-23T10:57:49.900Z,97045.23
2018-08-23T11:00:16.870Z,97047.06
2018-08-23T11:02:43.899Z,97043.61
2018-08-23T11:05:10.865Z,97032.29
2018-08-23T11:07:37.842Z,97034.70
2018-08-23T11:10:05.280Z,97033.03
2018-08-23T11:12:32.830Z,97034.54
2018-08-23T11:15:00.284Z,97024.34
2018-08-23T11:20:22.706Z,97020.05
2018-08-23T11:22:50.298Z,97010.16
2018-08-23T11:25:17.710Z,97002.16
2018-08-23T11:27:45.162Z,96992.21
2018-08-23T11:30:12.612Z,96998.16
2018-08-23T11:32:40.468Z,96992.67
2018-08-23T11:35:07.894Z,96987.66
2018-08-23T11:37:35.277Z,96974.41
2018-08-23T11:40:02.774Z,96976.13
2018-08-23T11:42:31.124Z,96978.41
2018-08-23T11:44:58.626Z,96972.84
2018-08-23T11:47:26.618Z,96975.72
2018-08-23T11:49:54.337Z,96966.89
2018-08-23T11:52:21.819Z,96958.50
2018-08-23T11:54:49.311Z,96954.52
2018-08-23T11:57:16.764Z,96956.58
2018-08-23T11:59:43.781Z,96951.21
2018-08-23T12:02:11.270Z,96950.02
2018-08-23T12:04:38.291Z,96952.20
2018-08-23T12:07:06.611Z,96945.57
2018-08-23T12:09:33.584Z,96940.09
2018-08-23T12:12:01.014Z,96936.20
2018-08-23T12:14:28.637Z,96933.78
2018-08-23T12:16:56.191Z,96927.78
2018-08-23T12:19:23.923Z,96932.67
2018-08-23T12:21:51.437Z,96928.66
2018-08-23T12:24:19.003Z,96919.78
2018-08-23T12:26:46.460Z,96927.10
2018-08-23T12:29:14.026Z,96919.08
2018-08-23T12:31:41.560Z,96924.16
2018-08-23T12:34:09.100Z,96916.28
2018-08-23T12:36:36.542Z,96909.19
2018-08-23T12:42:18.856Z,96908.94
2018-08-23T12:44:46.324Z,96904.83
2018-08-23T12:47:13.749Z,96906.03
2018-08-23T12:49:41.358Z,96902.64
2018-08-23T12:52:08.860Z,96898.00
2018-08-23T12:54:36.405Z,96896.46
2018-08-23T12:57:03.858Z,96891.30
2018-08-23T12:59:30.822Z,96888.83
2018-08-23T13:01:58.396Z,96890.22
2018-08-23T13:04:25.573Z,96888.12
2018-08-23T13:06:52.630Z,96890.40
2018-08-23T13:09:19.642Z,96885.70
2018-08-23T13:11:46.636Z,96889.19
2018-08-23T13:14:13.712Z,96880.38
2018-08-23T13:16:40.839Z,96873.38
2018-08-23T13:19:07.845Z,96862.20
2018-08-23T13:21:34.797Z,96868.99
2018-08-23T13:24:01.886Z,96866.75
2018-08-23T13:26:28.881Z,96862.87
2018-08-23T13:28:55.889Z,96864.28
2018-08-23T13:31:22.897Z,96866.74
2018-08-23T13:33:49.910Z,96854.20
2018-08-23T13:36:17.100Z,96859.73
2018-08-23T13:38:43.991Z,96854.13
2018-08-23T13:41:11.965Z,96856.31
2018-08-23T13:43:39.119Z,96866.12
2018-08-23T13:46:06.059Z,96850.51
2018-08-23T13:48:33.713Z,96855.97
2018-08-23T13:51:00.649Z,96851.45
2018-08-23T13:53:27.617Z,96842.02
2018-08-23T13:55:55.074Z,96838.75
2018-08-23T13:58:22.087Z,96842.31
2018-08-23T14:00:49.263Z,96836.67
2018-08-23T14:03:16.268Z,96830.25
2018-08-23T14:05:43.233Z,96825.45
2018-08-23T14:08:10.930Z,96828.73
2018-08-23T14:10:38.059Z,96823.63
2018-08-23T14:13:05.021Z,96814.52
2018-08-23T14:15:32.030Z,96815.80
2018-08-23T14:17:59.011Z,96811.48
2018-08-23T14:20:25.997Z,96816.45
2018-08-23T14:22:52.951Z,96812.67
2018-08-23T14:25:19.963Z,96802.45
2018-08-23T14:27:46.943Z,96802.33
2018-08-23T14:30:13.989Z,96806.76
2018-08-23T14:32:41.006Z,96795.69
2018-08-23T14:35:08.025Z,96798.58
2018-08-23T14:37:34.975Z,96798.00
2018-08-23T14:40:02.021Z,96793.27
2018-08-23T14:42:29.112Z,96790.28
2018-08-23T14:44:56.172Z,96795.53
2018-08-23T14:47:28.766Z,96782.36
2018-08-23T14:49:57.260Z,96786.06
2018-08-23T14:52:24.217Z,96775.97
2018-08-23T14:54:51.212Z,96766.92
2018-08-23T14:57:32.762Z,96777.09
2018-08-23T14:59:59.823Z,96768.44
2018-08-23T15:02:26.899Z,96775.47
2018-08-23T15:04:53.861Z,96760.68
2018-08-23T15:07:20.889Z,96761.74
2018-08-23T15:09:47.920Z,96760.50
2018-08-23T15:12:14.879Z,96753.49
2018-08-23T15:14:41.839Z,96758.91
2018-08-23T15:17:09.821Z,96764.38
2018-08-23T15:19:37.402Z,96757.27
2018-08-23T15:22:04.445Z,96757.14
2018-08-23T15:24:31.460Z,96751.54
2018-08-23T15:26:58.514Z,96737.64
2018-08-23T15:29:25.938Z,96749.77
2018-08-23T15:31:52.883Z,96742.54
2018-08-23T15:34:19.879Z,96752.08
2018-08-23T15:36:46.836Z,96752.86
2018-08-23T15:39:13.852Z,96748.69
2018-08-23T15:41:41.118Z,96744.85
2018-08-23T15:44:08.092Z,96744.20
2018-08-23T15:46:36.263Z,96745.40
2018-08-23T15:49:03.186Z,96744.19
2018-08-23T15:51:30.158Z,96743.12
2018-08-23T15:53:57.171Z,96747.70
2018-08-23T15:56:24.162Z,96741.39
2018-08-23T15:58:51.197Z,96740.88
2018-08-23T16:01:18.167Z,96739.93
2018-08-23T16:03:45.124Z,96732.25
2018-08-23T16:06:12.095Z,96734.01
2018-08-23T16:08:39.043Z,96734.24
2018-08-23T16:11:06.065Z,96727.47
2018-08-23T16:13:33.838Z,96726.28
2018-08-23T16:16:00.967Z,96732.78
2018-08-23T16:21:27.513Z,96731.40
2018-08-23T16:23:54.528Z,96733.95
2018-08-23T16:26:22.580Z,96734.06
2018-08-23T16:28:49.562Z,96737.63
2018-08-23T16:31:16.590Z,96737.39
2018-08-23T16:33:43.694Z,96732.71
2018-08-23T16:36:11.702Z,96731.69
2018-08-23T16:38:38.817Z,96728.14
2018-08-23T16:41:05.795Z,96732.11
2018-08-23T16:43:32.790Z,96736.88
2018-08-23T16:46:00.265Z,96740.48
2018-08-23T16:48:27.683Z,96731.47
2018-08-23T16:50:55.373Z,96728.02
2018-08-23T16:53:23.025Z,96726.08
2018-08-23T16:55:50.690Z,96727.38
2018-08-23T16:58:18.131Z,96728.59
2018-08-23T17:00:45.562Z,96725.50
2018-08-23T17:03:13.065Z,96724.37
2018-08-23T17:05:40.532Z,96731.98
2018-08-23T17:08:08.069Z,96728.71
2018-08-23T17:10:35.520Z,96738.08
2018-08-23T17:13:03.107Z,96739.25
2018-08-23T17:15:30.704Z,96750.09
2018-08-23T17:17:58.263Z,96762.75
2018-08-23T17:20:25.742Z,96755.88
2018-08-23T17:22:54.184Z,96764.41
2018-08-23T17:25:21.762Z,96756.99
2018-08-23T17:27:49.153Z,96759.52
2018-08-23T17:30:16.622Z,96759.98
2018-08-23T17:32:44.101Z,96756.15
2018-08-23T17:35:11.547Z,96757.50
2018-08-23T17:37:38.979Z,96762.13
2018-08-23T17:40:06.435Z,96763.87
2018-08-23T17:42:33.898Z,96761.03
2018-08-23T17:45:00.919Z,96763.84
2018-08-23T17:47:27.945Z,96764.22
2018-08-23T17:49:55.407Z,96760.50
2018-08-23T17:52:22.859Z,96759.61
2018-08-23T17:54:49.876Z,96773.97
2018-08-23T17:57:16.931Z,96773.72
2018-08-23T17:59:44.746Z,96778.52
2018-08-23T18:02:11.681Z,96778.39
2018-08-23T18:04:39.340Z,96784.57
2018-08-23T18:07:06.824Z,96784.77
2018-08-23T18:09:34.323Z,96785.74
2018-08-23T18:12:02.735Z,96786.55
2018-08-23T18:14:30.188Z,96788.33
2018-08-23T18:16:58.473Z,96796.55
2018-08-23T18:19:26.813Z,96802.77
2018-08-23T18:21:54.250Z,96799.23
2018-08-23T18:24:21.777Z,96795.49
2018-08-23T18:26:49.262Z,96802.30
2018-08-23T18:29:16.731Z,96809.69
2018-08-23T18:31:44.192Z,96805.63
2018-08-23T18:34:11.684Z,96811.88
2018-08-23T18:36:39.177Z,96819.66
2018-08-23T18:39:06.677Z,96825.20
2018-08-23T18:41:34.142Z,96832.77
2018-08-23T18:44:01.584Z,96838.71
2018-08-23T18:46:29.199Z,96842.48
2018-08-23T18:48:56.684Z,96850.41
2018-08-23T18:51:25.524Z,96863.78
2018-08-23T18:53:52.933Z,96864.38
2018-08-23T18:56:20.450Z,96862.74
2018-08-23T18:58:48.037Z,96871.40
2018-08-23T19:01:15.668Z,96874.68
2018-08-23T19:03:43.168Z,96874.94
2018-08-23T19:06:11.080Z,96875.70
2018-08-23T19:08:38.661Z,96882.16
2018-08-23T19:11:06.180Z,96885.16
2018-08-23T19:13:33.630Z,96888.35
2018-08-23T19:16:01.086Z,96897.77
2018-08-23T19:18:28.738Z,96900.38
2018-08-23T19:20:56.307Z,96903.18
2018-08-23T19:23:23.791Z,96901.85
2018-08-23T19:25:51.779Z,96900.30
2018-08-23T19:28:19.196Z,96909.73
2018-08-23T19:30:46.772Z,96911.88
2018-08-23T19:33:14.881Z,96912.09
2018-08-23T19:35:42.379Z,96897.99
2018-08-23T19:38:09.835Z,96902.36
2018-08-23T19:40:37.444Z,96902.44
2018-08-23T19:43:04.845Z,96904.33
2018-08-23T19:45:32.304Z,96906.30
2018-08-23T19:47:59.800Z,96910.96
2018-08-23T19:50:27.323Z,96910.66
2018-08-23T19:52:54.773Z,96906.91
2018-08-23T19:55:22.199Z,96903.88
2018-08-23T19:57:50.042Z,96899.75
2018-08-23T20:00:17.589Z,96906.28
2018-08-23T20:02:45.167Z,96903.98
2018-08-23T20:05:12.627Z,96904.63
2018-08-23T20:07:40.124Z,96902.03
2018-08-23T20:10:07.538Z,96908.70
2018-08-23T20:12:35.072Z,96906.05
2018-08-23T20:15:02.408Z,96909.88
2018-08-23T20:17:29.847Z,96907.41
2018-08-23T20:19:57.252Z,96909.57
2018-08-23T20:22:24.731Z,96911.66
2018-08-23T20:24:52.166Z,96919.41
2018-08-23T20:27:19.602Z,96914.13
2018-08-23T20:29:47.165Z,96903.66
2018-08-23T20:32:14.658Z,96900.44
2018-08-23T20:34:42.787Z,96911.41
2018-08-23T20:37:10.245Z,96907.61
2018-08-23T20:39:38.066Z,96911.55
2018-08-23T20:42:05.498Z,96917.85
2018-08-23T20:44:32.994Z,96916.84
2018-08-23T20:47:00.637Z,96910.61
2018-08-23T20:49:28.084Z,96900.08
2018-08-23T20:51:55.538Z,96903.78
2018-08-23T20:54:22.985Z,96909.78
2018-08-23T20:56:50.787Z,96912.75
2018-08-23T20:59:18.228Z,96913.99
2018-08-23T21:01:45.642Z,96907.19
2018-08-23T21:04:13.272Z,96905.00
2018-08-23T21:06:40.626Z,96906.86
2018-08-23T21:09:08.300Z,96907.20
2018-08-23T21:11:35.709Z,96907.53
2018-08-23T21:14:03.148Z,96912.64
2018-08-23T21:16:30.635Z,96901.58
2018-08-23T21:18:58.249Z,96910.17
2018-08-23T21:21:25.826Z,96913.05
2018-08-23T21:23:53.351Z,96914.11
2018-08-23T21:26:20.746Z,96922.06
2018-08-23T21:28:48.200Z,96926.62
2018-08-23T21:31:15.645Z,96923.84
2018-08-23T21:33:43.102Z,96927.25
2018-08-23T21:36:10.520Z,96930.75
2018-08-23T21:38:38.002Z,96930.47
2018-08-23T21:41:05.669Z,96931.33
2018-08-23T21:43:33.111Z,96933.82
2018-08-23T21:46:00.635Z,96927.21
2018-08-23T21:48:28.093Z,96928.77
2018-08-23T21:50:55.511Z,96932.34
2018-08-23T21:53:22.926Z,96930.78
2018-08-23T21:55:50.367Z,96934.41
2018-08-23T21:58:17.846Z,96930.37
2018-08-23T22:00:45.326Z,96927.16
2018-08-23T22:03:13.119Z,96928.20
2018-08-23T22:05:40.600Z,96934.73
2018-08-23T22:08:08.162Z,96935.42
2018-08-23T22:10:35.695Z,96930.04
2018-08-23T22:13:03.097Z,96928.17
2018-08-23T22:15:30.566Z,96927.24
2018-08-23T22:17:57.979Z,96922.91
2018-08-23T22:20:25.552Z,96927.11
2018-08-23T22:22:52.997Z,96926.14
2018-08-23T22:25:20.475Z,96923.76
2018-08-23T22:27:47.966Z,96922.83
2018-08-23T22:30:15.455Z,96919.06
2018-08-23T22:32:42.873Z,96927.20
2018-08-23T22:35:10.305Z,96926.45
2018-08-23T22:37:37.810Z,96920.92
2018-08-23T22:40:05.253Z,96929.02
2018-08-23T22:42:32.760Z,96926.05
2018-08-23T22:45:00.153Z,96930.37
2018-08-23T22:47:27.714Z,96926.52
2018-08-23T22:49:55.300Z,96926.30
2018-08-23T22:52:22.705Z,96920.80
2018-08-23T22:54:50.423Z,96918.12
2018-08-23T22:57:17.925Z,96918.49
2018-08-23T22:59:45.384Z,96931.23
2018-08-23T23:02:12.815Z,96929.47
2018-08-23T23:04:40.230Z,96933.86
2018-08-23T23:07:07.681Z,96925.86
2018-08-23T23:09:35.111Z,96925.68
2018-08-23T23:12:02.541Z,96922.94
2018-08-23T23:14:29.927Z,96932.59
2018-08-23T23:16:57.357Z,96930.19
2018-08-23T23:19:25.056Z,96932.64
2018-08-23T23:21:52.619Z,96934.84
2018-08-23T23:24:20.221Z,96929.48
2018-08-23T23:26:47.662Z,96928.33
2018-08-23T23:29:15.116Z,96924.18
2018-08-23T23:31:42.675Z,96923.23
2018-08-23T23:34:10.077Z,96929.42
2018-08-23T23:36:37.547Z,96928.43
2018-08-23T23:39:04.990Z,96931.98
2018-08-23T23:41:32.367Z,96940.50
2018-08-23T23:43:59.805Z,96938.81
2018-08-23T23:46:27.208Z,96934.00
2018-08-23T23:48:54.879Z,96931.50
2018-08-23T23:51:22.371Z,96928.28
2018-08-23T23:53:49.828Z,96933.51
2018-08-23T23:56:17.465Z,96928.27
2018-08-23T23:58:44.903Z,96928.84
